createdAt,value
2022-09-02T00:03:35.579Z,16.53
2022-09-02T00:13:38.588Z,16.34
2022-09-02T00:23:43.082Z,16.38
2022-09-02T00:33:46.426Z,16.33
2022-09-02T00:43:57.066Z,16.29
2022-09-02T00:54:00.415Z,16.20
2022-09-02T01:04:03.634Z,16.21
2022-09-02T01:14:07.564Z,16.16
2022-09-02T01:24:11.619Z,15.98
2022-09-02T01:34:14.820Z,16.06
2022-09-02T01:44:17.978Z,16.02
2022-09-02T01:54:23.288Z,15.98
2022-09-02T02:04:27.770Z,16.05
2022-09-02T02:14:31.097Z,16.07
2022-09-02T02:24:34.252Z,16.01
2022-09-02T02:34:37.292Z,15.92
2022-09-02T02:44:41.190Z,15.84
2022-09-02T02:54:44.369Z,15.93
2022-09-02T03:04:47.407Z,15.94
2022-09-02T03:14:51.739Z,15.88
2022-09-02T03:24:55.219Z,15.81
2022-09-02T03:34:59.332Z,15.75
2022-09-02T03:45:04.542Z,15.71
2022-09-02T03:55:07.951Z,15.68
2022-09-02T04:05:15.973Z,15.69
2022-09-02T04:15:21.052Z,15.69
2022-09-02T04:25:27.787Z,15.71
2022-09-02T04:35:32.448Z,15.72
2022-09-02T04:45:36.050Z,15.79
2022-09-02T04:55:41.262Z,15.86
2022-09-02T05:05:44.518Z,16.03
2022-09-02T05:15:47.743Z,16.18
2022-09-02T05:25:51.445Z,16.26
2022-09-02T05:35:54.839Z,16.41
2022-09-02T05:46:00.003Z,16.48
2022-09-02T05:56:06.827Z,16.48
2022-09-02T06:06:11.045Z,16.78
2022-09-02T06:16:19.580Z,16.87
2022-09-02T06:26:23.333Z,17.19
2022-09-02T06:36:30.384Z,17.23
2022-09-02T06:46:38.965Z,17.33
2022-09-02T06:56:48.585Z,17.58
2022-09-02T07:06:55.173Z,17.69
2022-09-02T07:17:00.748Z,17.56
2022-09-02T07:27:05.986Z,17.82
2022-09-02T07:37:11.102Z,17.67
2022-09-02T07:47:15.018Z,17.68
2022-09-02T07:57:20.511Z,17.79
2022-09-02T08:07:24.437Z,17.81
2022-09-02T08:17:27.788Z,17.91
2022-09-02T08:27:32.308Z,18.23
2022-09-02T08:37:36.654Z,18.54
2022-09-02T08:47:44.214Z,18.67
2022-09-02T08:57:47.421Z,18.76
2022-09-02T09:08:05.019Z,18.63
2022-09-02T09:18:13.715Z,18.72
2022-09-02T09:28:16.764Z,18.66
2022-09-02T09:38:32.079Z,18.59
2022-09-02T09:48:38.959Z,18.71
2022-09-02T09:58:41.858Z,18.59
2022-09-02T10:08:57.631Z,18.36
2022-09-02T10:19:23.567Z,18.21
2022-09-02T10:29:45.435Z,18.07
2022-09-02T10:39:57.477Z,18.07
2022-09-02T10:50:12.170Z,18.18
2022-09-02T11:00:23.242Z,18.24
2022-09-02T11:10:39.585Z,18.10
2022-09-02T11:21:04.004Z,17.74
2022-09-02T11:31:19.535Z,17.77
2022-09-02T11:41:34.344Z,17.54
2022-09-02T11:52:06.501Z,17.42
2022-09-02T12:02:12.886Z,17.32
2022-09-02T12:12:38.372Z,17.27
2022-09-02T12:22:42.130Z,16.94
2022-09-02T12:33:02.490Z,16.74
2022-09-02T12:43:20.013Z,16.75
2022-09-02T12:53:23.400Z,16.57
2022-09-02T13:03:35.322Z,16.54
2022-09-02T13:14:25.971Z,16.67
2022-09-02T13:25:26.706Z,16.65
2022-09-02T13:35:29.929Z,16.72
2022-09-02T13:45:35.469Z,16.63
2022-09-02T13:55:43.635Z,16.58
2022-09-02T14:05:55.851Z,16.44
2022-09-02T14:16:44.313Z,16.19
2022-09-02T14:26:50.103Z,16.20
2022-09-02T14:36:53.140Z,16.14
2022-09-02T14:47:00.473Z,16.13
2022-09-02T14:57:05.217Z,16.22
2022-09-02T15:07:08.295Z,16.27
2022-09-02T15:17:14.748Z,16.25
2022-09-02T15:27:21.525Z,16.31
2022-09-02T15:37:26.261Z,16.17
2022-09-02T15:47:30.681Z,16.11
2022-09-02T15:57:33.825Z,16.05
2022-09-02T16:07:37.068Z,15.97
2022-09-02T16:17:41.184Z,15.92
2022-09-02T16:27:53.217Z,15.86
2022-09-02T16:37:57.515Z,15.86
2022-09-02T16:48:00.762Z,15.84
2022-09-02T16:58:03.799Z,15.92
2022-09-02T17:08:07.641Z,15.82
2022-09-02T17:18:10.798Z,15.77
2022-09-02T17:28:15.952Z,15.77
2022-09-02T17:38:27.345Z,15.74
2022-09-02T17:48:41.630Z,15.63
2022-09-02T17:59:25.941Z,15.50
2022-09-02T18:09:29.786Z,15.52
2022-09-02T18:19:43.893Z,15.51
2022-09-02T18:30:06.400Z,15.45
2022-09-02T18:40:15.478Z,15.45
2022-09-02T19:00:55.699Z,15.24
2022-09-02T19:11:09.482Z,15.28
2022-09-02T19:21:25.321Z,15.33
2022-09-02T19:31:32.686Z,15.29
2022-09-02T19:41:36.426Z,15.19
2022-09-02T19:51:39.862Z,15.23
2022-09-02T20:01:43.261Z,15.26
2022-09-02T20:11:46.991Z,15.27
2022-09-02T20:21:49.990Z,15.33
2022-09-02T20:31:59.051Z,15.28
2022-09-02T20:42:21.397Z,15.25
2022-09-02T20:52:36.042Z,15.27
2022-09-02T21:02:45.094Z,15.26
2022-09-02T21:13:02.481Z,15.24
2022-09-02T21:23:21.496Z,15.08
2022-09-02T21:33:28.761Z,15.13
2022-09-02T21:44:06.901Z,15.06
2022-09-02T21:54:40.852Z,15.10
2022-09-02T22:05:08.230Z,15.07
2022-09-02T22:15:22.258Z,15.13
2022-09-02T22:25:25.716Z,15.13
2022-09-02T22:35:41.367Z,15.07
2022-09-02T22:46:14.951Z,15.11
2022-09-02T22:56:39.473Z,15.22
2022-09-02T23:06:44.685Z,15.14
2022-09-02T23:17:57.304Z,15.04
2022-09-02T23:28:10.094Z,14.85
2022-09-02T23:38:35.097Z,14.74
2022-09-02T23:49:06.584Z,14.66
2022-09-02T23:59:15.453Z,14.44
